Time;durP1;ratioP1;P1;durP2;ratioP2;P2;SDS_P1;SDS_P2;PMS_P1;PMS_P2;Temp;Humidity;BMP_temperature;BMP_pressure;BME280_temperature;BME280_humidity;BME280_pressure;Samples;Min_cycle;Max_cycle;Signal;HPM_P1;HPM_P2
2023/09/04 00:00:33;;;;;;;7.53;4.90;;;17.30;89.90;;;;;;5007095;28;20195;-83
2023/09/04 00:03:00;;;;;;;7.60;4.55;;;17.10;1.00;;;;;;5015584;28;20584;-83
2023/09/04 00:05:28;;;;;;;4.72;4.32;;;16.80;1.00;;;;;;5015379;28;20204;-82
2023/09/04 00:07:55;;;;;;;5.35;4.85;;;16.60;99.90;;;;;;5031667;28;20199;-83
2023/09/04 00:10:24;;;;;;;5.05;4.53;;;16.50;99.90;;;;;;5015063;28;20219;-83
2023/09/04 00:12:51;;;;;;;4.57;4.18;;;16.70;1.00;;;;;;5014395;28;20223;-82
2023/09/04 00:15:19;;;;;;;6.07;4.40;;;16.60;99.90;;;;;;5013625;28;20287;-83
2023/09/04 00:17:49;;;;;;;5.38;4.88;;;16.60;99.90;;;;;;5014413;28;20196;-83
2023/09/04 00:20:16;;;;;;;5.45;4.95;;;16.60;99.90;;;;;;5014143;28;20199;-83
2023/09/04 00:22:44;;;;;;;5.45;4.93;;;16.50;1.00;;;;;;5013819;28;20234;-82
2023/09/04 00:25:11;;;;;;;5.38;4.93;;;16.50;1.00;;;;;;5011181;28;20196;-83
2023/09/04 00:27:40;;;;;;;6.20;4.93;;;16.50;85.20;;;;;;5013804;28;20196;-83
2023/09/04 00:30:09;;;;;;;8.32;4.60;;;16.60;1.00;;;;;;5011904;28;20200;-84
2023/09/04 00:32:36;;;;;;;4.80;4.40;;;16.40;21.00;;;;;;5006062;28;20203;-82
2023/09/04 00:35:04;;;;;;;5.95;5.00;;;16.50;99.90;;;;;;5012839;28;20199;-83
2023/09/04 00:37:31;;;;;;;6.50;4.85;;;16.30;99.90;;;;;;5030736;28;20195;-82
2023/09/04 00:39:59;;;;;;;5.93;4.60;;;16.20;1.00;;;;;;5014066;28;20250;-83
2023/09/04 00:42:29;;;;;;;5.53;4.85;;;16.20;69.60;;;;;;5014252;28;20196;-83
2023/09/04 00:44:58;;;;;;;5.35;4.78;;;16.00;63.20;;;;;;5012755;28;20212;-83
2023/09/04 00:47:26;;;;;;;4.88;4.47;;;15.90;99.90;;;;;;5012756;28;20211;-83
2023/09/04 00:49:54;;;;;;;5.15;4.65;;;16.00;1.00;;;;;;5010206;28;20655;-83
2023/09/04 00:52:23;;;;;;;5.40;4.90;;;16.10;99.90;;;;;;5011904;28;20215;-83
2023/09/04 00:54:50;;;;;;;5.03;4.55;;;16.10;99.90;;;;;;5014292;28;20568;-83
2023/09/04 00:57:19;;;;;;;5.55;4.32;;;16.00;99.90;;;;;;5012109;28;20207;-83
2023/09/04 00:59:47;;;;;;;5.68;4.75;;;16.20;99.90;;;;;;5011702;28;20214;-83
2023/09/04 01:02:16;;;;;;;6.00;4.45;;;16.40;1.00;;;;;;5016264;28;20216;-83
2023/09/04 01:04:43;;;;;;;5.75;4.30;;;16.50;99.90;;;;;;5014010;28;20207;-82
2023/09/04 01:07:11;;;;;;;7.13;5.15;;;16.50;1.00;;;;;;5013246;28;20211;-83
2023/09/04 01:09:38;;;;;;;5.22;4.57;;;16.50;1.00;;;;;;5012700;28;20196;-83
2023/09/04 01:12:15;;;;;;;5.45;4.95;;;16.30;99.90;;;;;;5012832;28;20196;-84
2023/09/04 01:14:46;;;;;;;5.57;4.78;;;16.40;99.90;;;;;;5012826;28;20200;-82
2023/09/04 01:17:16;;;;;;;6.68;5.38;;;16.50;1.00;;;;;;5013444;28;20191;-83
2023/09/04 01:19:45;;;;;;;5.57;5.03;;;16.50;99.90;;;;;;5012184;28;20215;-83
2023/09/04 01:22:14;;;;;;;6.60;4.88;;;16.60;1.40;;;;;;5012612;28;20204;-83
2023/09/04 01:24:42;;;;;;;5.95;4.78;;;16.50;1.00;;;;;;5012886;28;20685;-82
2023/09/04 01:27:16;;;;;;;5.32;4.82;;;16.40;99.90;;;;;;5018021;28;20212;-83
2023/09/04 01:29:53;;;;;;;6.30;5.43;;;16.30;99.90;;;;;;5007411;28;20206;-83
2023/09/04 01:32:28;;;;;;;5.70;4.75;;;16.20;1.00;;;;;;5022310;28;20204;-83
2023/09/04 01:34:57;;;;;;;5.22;4.72;;;16.00;1.00;;;;;;5012549;28;20199;-83
2023/09/04 01:37:27;;;;;;;6.20;4.95;;;16.10;1.00;;;;;;5012425;28;20211;-82
2023/09/04 01:39:55;;;;;;;5.57;5.07;;;16.40;1.00;;;;;;5011814;28;20219;-84
2023/09/04 01:42:22;;;;;;;6.20;4.60;;;16.40;1.00;;;;;;5011974;28;20211;-84
2023/09/04 01:44:50;;;;;;;4.95;4.38;;;16.50;99.90;;;;;;5011333;28;20196;-83
2023/09/04 01:47:18;;;;;;;5.90;4.72;;;16.60;1.00;;;;;;5012476;28;20210;-83
2023/09/04 01:49:47;;;;;;;5.32;4.82;;;16.60;1.00;;;;;;5012550;28;20575;-83
2023/09/04 01:52:14;;;;;;;6.00;4.90;;;16.50;1.00;;;;;;5011124;28;20211;-83
2023/09/04 01:54:43;;;;;;;5.72;5.22;;;16.40;9.70;;;;;;5011613;28;20204;-83
2023/09/04 01:57:10;;;;;;;5.47;4.90;;;16.40;1.00;;;;;;5012573;28;20210;-82
2023/09/04 01:59:38;;;;;;;5.65;5.00;;;16.40;1.00;;;;;;5012865;28;20215;-83
2023/09/04 02:02:05;;;;;;;5.82;5.07;;;16.40;1.00;;;;;;5011858;28;20199;-82
2023/09/04 02:04:34;;;;;;;6.20;5.60;;;16.50;99.90;;;;;;5010952;28;20226;-83
2023/09/04 02:07:01;;;;;;;6.05;5.35;;;16.40;99.90;;;;;;5011268;28;20214;-83
2023/09/04 02:09:29;;;;;;;5.35;4.75;;;16.30;1.00;;;;;;5019984;28;20192;-82
2023/09/04 02:11:59;;;;;;;5.53;5.03;;;16.00;99.90;;;;;;5012203;28;20200;-83
2023/09/04 02:14:28;;;;;;;5.70;5.10;;;15.90;1.00;;;;;;5028374;28;20597;-84
2023/09/04 02:16:55;;;;;;;6.15;5.35;;;15.80;99.90;;;;;;5012381;28;20206;-83
2023/09/04 02:19:22;;;;;;;7.38;5.00;;;15.90;99.90;;;;;;5010608;28;20231;-83
2023/09/04 02:21:50;;;;;;;5.50;5.10;;;16.10;1.00;;;;;;5011869;28;20258;-83
2023/09/04 02:24:17;;;;;;;5.57;5.07;;;16.20;1.00;;;;;;5010699;28;20230;-82
2023/09/04 02:26:45;;;;;;;5.30;4.82;;;16.20;99.90;;;;;;5012286;28;20187;-82
2023/09/04 02:29:14;;;;;;;5.97;5.38;;;16.10;1.00;;;;;;5024125;28;20772;-84
2023/09/04 02:31:42;;;;;;;5.35;4.85;;;15.90;1.00;;;;;;5010392;28;20199;-83
2023/09/04 02:34:10;;;;;;;5.97;5.38;;;15.70;1.00;;;;;;5027564;28;20562;-83
2023/09/04 02:36:37;;;;;;;6.47;5.28;;;15.60;99.90;;;;;;5012537;28;20188;-82
2023/09/04 02:39:05;;;;;;;7.75;4.38;;;15.60;98.60;;;;;;5011903;28;20188;-83
2023/09/04 02:41:34;;;;;;;6.13;5.03;;;15.40;88.10;;;;;;5026725;28;20250;-82
2023/09/04 02:44:02;;;;;;;5.50;5.03;;;15.40;99.90;;;;;;5011554;28;20223;-82
2023/09/04 02:46:32;;;;;;;5.50;5.00;;;15.30;99.90;;;;;;5011974;28;20202;-84
2023/09/04 02:48:59;;;;;;;6.30;5.68;;;15.20;1.00;;;;;;5003679;28;20196;-83
2023/09/04 02:51:27;;;;;;;5.60;5.10;;;15.30;1.00;;;;;;5009749;28;20206;-82
2023/09/04 02:53:54;;;;;;;5.15;4.75;;;15.40;1.00;;;;;;5027162;28;20231;-83
2023/09/04 02:56:22;;;;;;;5.82;5.22;;;15.40;1.00;;;;;;5010861;28;20216;-83
2023/09/04 02:58:49;;;;;;;6.88;5.30;;;15.30;1.00;;;;;;5011374;28;20205;-84
2023/09/04 03:01:17;;;;;;;5.57;5.07;;;15.20;1.00;;;;;;5010501;28;20234;-82
2023/09/04 03:03:46;;;;;;;5.22;4.75;;;15.10;1.00;;;;;;5027694;28;20211;-83
2023/09/04 03:06:13;;;;;;;5.75;4.95;;;15.00;1.00;;;;;;5010928;28;20214;-83
2023/09/04 03:08:41;;;;;;;6.45;5.53;;;15.00;1.00;;;;;;5011500;28;20199;-82
2023/09/04 03:11:10;;;;;;;5.53;5.03;;;15.10;1.00;;;;;;5012263;28;20188;-83
2023/09/04 03:13:38;;;;;;;5.90;5.30;;;15.20;1.00;;;;;;5010707;28;20302;-84
2023/09/04 03:16:07;;;;;;;6.20;5.60;;;15.20;1.00;;;;;;5009842;28;20666;-83
2023/09/04 03:18:35;;;;;;;6.97;6.20;;;15.30;1.00;;;;;;5010152;28;20219;-83
2023/09/04 03:21:04;;;;;;;6.95;5.30;;;15.30;1.00;;;;;;5027816;28;20212;-83
2023/09/04 03:23:33;;;;;;;5.93;5.32;;;15.20;1.00;;;;;;5015357;28;20219;-83
2023/09/04 03:26:02;;;;;;;5.85;5.28;;;15.10;1.00;;;;;;5015381;28;20191;-83
2023/09/04 03:28:30;;;;;;;6.38;5.57;;;15.20;1.00;;;;;;5014685;28;20195;-83
2023/09/04 03:30:58;;;;;;;5.95;5.43;;;15.30;1.00;;;;;;5009943;28;20195;-83
2023/09/04 03:33:27;;;;;;;6.00;5.38;;;15.30;1.00;;;;;;5014910;28;20219;-83
2023/09/04 03:35:57;;;;;;;5.93;5.10;;;15.30;1.00;;;;;;5015062;28;20199;-83
2023/09/04 03:38:26;;;;;;;6.25;5.38;;;15.30;1.00;;;;;;5015192;28;20681;-83
2023/09/04 03:40:53;;;;;;;6.30;5.45;;;15.30;1.00;;;;;;5013284;28;20216;-83
2023/09/04 03:43:21;;;;;;;7.20;6.00;;;15.20;1.00;;;;;;5014209;28;20227;-82
2023/09/04 03:45:48;;;;;;;5.82;5.32;;;15.10;1.00;;;;;;5014171;28;20196;-84
2023/09/04 03:48:16;;;;;;;6.03;5.35;;;15.00;1.00;;;;;;5011638;28;20700;-83
2023/09/04 03:50:43;;;;;;;7.82;5.40;;;14.90;99.90;;;;;;5031125;28;20199;-82
2023/09/04 03:53:11;;;;;;;7.00;5.00;;;14.80;99.90;;;;;;5014023;28;20231;-83
2023/09/04 03:55:39;;;;;;;5.32;4.82;;;14.80;1.00;;;;;;5013860;28;20203;-82
2023/09/04 03:58:07;;;;;;;5.88;4.75;;;14.80;99.90;;;;;;5013842;28;20215;-82
2023/09/04 04:00:34;;;;;;;5.80;5.30;;;14.80;1.00;;;;;;5028857;28;20215;-83
2023/09/04 04:03:03;;;;;;;6.90;5.35;;;14.80;1.00;;;;;;5014247;28;20219;-82
2023/09/04 04:05:31;;;;;;;5.50;5.00;;;14.70;1.00;;;;;;5014708;28;20563;-82
2023/09/04 04:07:58;;;;;;;8.23;5.35;;;14.60;99.90;;;;;;5013220;28;20200;-82
2023/09/04 04:10:26;;;;;;;5.65;5.15;;;14.60;1.00;;;;;;5013484;28;20192;-83
2023/09/04 04:12:54;;;;;;;6.43;5.82;;;14.60;1.00;;;;;;5013724;28;20231;-83
2023/09/04 04:15:22;;;;;;;6.93;6.30;;;14.70;1.00;;;;;;5013460;28;20200;-83
2023/09/04 04:17:49;;;;;;;7.50;5.95;;;14.70;1.00;;;;;;5013471;28;20212;-83
2023/09/04 04:20:17;;;;;;;6.53;5.93;;;14.70;1.00;;;;;;5012429;28;20215;-82
2023/09/04 04:22:44;;;;;;;5.97;5.45;;;14.70;1.00;;;;;;5015370;28;20227;-83
2023/09/04 04:25:12;;;;;;;5.88;5.38;;;14.70;1.00;;;;;;5013546;28;20196;-82
2023/09/04 04:27:41;;;;;;;5.80;5.30;;;14.60;1.00;;;;;;5013357;28;20195;-83
2023/09/04 04:30:12;;;;;;;6.45;5.85;;;14.60;1.00;;;;;;5016316;28;20199;-83
2023/09/04 04:32:40;;;;;;;6.47;5.60;;;14.60;1.00;;;;;;5011145;28;20591;-83
2023/09/04 04:35:08;;;;;;;6.35;5.78;;;14.70;1.00;;;;;;5013924;28;20212;-84
2023/09/04 04:37:36;;;;;;;5.55;5.05;;;14.60;1.00;;;;;;5028693;28;20191;-83
2023/09/04 04:40:05;;;;;;;7.75;5.47;;;14.50;1.00;;;;;;5011011;28;20211;-83
2023/09/04 04:42:34;;;;;;;6.38;5.35;;;14.40;1.00;;;;;;5004635;28;20219;-83
2023/09/04 04:45:03;;;;;;;6.53;5.50;;;14.40;99.90;;;;;;5013115;28;20210;-83
2023/09/04 04:47:32;;;;;;;5.82;5.28;;;14.40;1.00;;;;;;5013037;28;20207;-83
2023/09/04 04:50:00;;;;;;;8.60;7.85;;;14.60;1.00;;;;;;5013371;28;20200;-83
2023/09/04 04:52:27;;;;;;;8.80;7.90;;;14.70;1.00;;;;;;5012567;28;20195;-83
2023/09/04 04:54:55;;;;;;;6.45;5.80;;;14.60;1.00;;;;;;5009515;28;20551;-83
2023/09/04 04:57:22;;;;;;;6.05;5.50;;;14.50;1.00;;;;;;5010566;28;20200;-83
2023/09/04 04:59:50;;;;;;;7.47;6.75;;;14.50;52.20;;;;;;5004380;28;20938;-82
2023/09/04 05:02:17;;;;;;;7.05;6.32;;;14.70;1.00;;;;;;5027147;28;20586;-83
2023/09/04 05:04:47;;;;;;;6.43;5.82;;;14.70;1.00;;;;;;5013749;28;20654;-83
2023/09/04 05:07:16;;;;;;;6.90;6.30;;;14.70;1.00;;;;;;5010808;28;20196;-83
2023/09/04 05:09:43;;;;;;;7.05;6.38;;;14.80;1.00;;;;;;5011349;28;20203;-83
2023/09/04 05:12:11;;;;;;;8.73;7.32;;;14.80;1.00;;;;;;5013203;28;20202;-83
2023/09/04 05:14:39;;;;;;;6.82;6.22;;;14.80;1.00;;;;;;5012396;28;20195;-83
2023/09/04 05:17:07;;;;;;;7.03;6.43;;;14.80;1.00;;;;;;5011784;28;20223;-83
2023/09/04 05:19:34;;;;;;;6.50;5.90;;;14.80;1.00;;;;;;5010397;28;20203;-83
2023/09/04 05:22:03;;;;;;;8.20;6.45;;;14.80;1.00;;;;;;5012200;28;20225;-82
2023/09/04 05:24:31;;;;;;;7.78;6.88;;;14.70;1.00;;;;;;5014142;28;20216;-82
2023/09/04 05:27:03;;;;;;;6.22;5.63;;;14.50;1.00;;;;;;5013952;28;20199;-83
2023/09/04 05:29:30;;;;;;;7.75;6.47;;;14.50;1.00;;;;;;5005555;28;20200;-82
2023/09/04 05:31:58;;;;;;;6.70;5.97;;;14.50;1.00;;;;;;5017703;28;20195;-82
2023/09/04 05:34:26;;;;;;;5.95;5.40;;;14.50;1.00;;;;;;5014137;28;20215;-82
2023/09/04 05:36:54;;;;;;;5.70;5.18;;;14.60;1.00;;;;;;5014095;28;20206;-82
2023/09/04 05:39:23;;;;;;;11.23;6.20;;;14.60;1.00;;;;;;5012994;28;20215;-82
2023/09/04 05:41:50;;;;;;;7.03;5.90;;;14.70;1.00;;;;;;5025280;28;20215;-83
2023/09/04 05:44:18;;;;;;;7.53;6.15;;;14.90;1.00;;;;;;5013374;28;20227;-82
2023/09/04 05:46:45;;;;;;;7.00;5.93;;;14.80;1.00;;;;;;5013682;28;20548;-82
2023/09/04 05:49:13;;;;;;;9.68;7.07;;;14.90;1.00;;;;;;5012846;28;20250;-82
2023/09/04 05:51:40;;;;;;;10.05;9.05;;;14.90;1.00;;;;;;5012952;28;20195;-82
2023/09/04 05:54:08;;;;;;;10.27;9.00;;;15.10;1.00;;;;;;5012158;28;20223;-83
2023/09/04 05:56:36;;;;;;;7.90;7.10;;;15.00;1.00;;;;;;5012145;28;20199;-82
2023/09/04 05:59:05;;;;;;;9.05;7.60;;;15.10;1.00;;;;;;5009408;28;20204;-83
2023/09/04 06:01:33;;;;;;;7.68;6.97;;;15.10;1.00;;;;;;5012187;28;20223;-82
2023/09/04 06:04:00;;;;;;;7.70;7.00;;;15.20;28.10;;;;;;5013105;28;20235;-83
2023/09/04 06:06:27;;;;;;;8.65;7.10;;;15.20;1.00;;;;;;5012051;28;20199;-82
2023/09/04 06:08:55;;;;;;;7.88;7.07;;;15.20;1.00;;;;;;5012363;28;20210;-82
2023/09/04 06:11:22;;;;;;;7.30;6.60;;;15.30;1.00;;;;;;5013289;28;20215;-83
2023/09/04 06:13:51;;;;;;;8.85;7.10;;;15.40;1.00;;;;;;5012208;28;20227;-83
2023/09/04 06:16:19;;;;;;;8.38;7.03;;;15.50;1.00;;;;;;5012463;28;20199;-83
2023/09/04 06:18:47;;;;;;;8.68;7.75;;;15.50;1.00;;;;;;5012010;28;20207;-82
2023/09/04 06:21:14;;;;;;;8.65;6.85;;;15.60;1.00;;;;;;5013029;28;20219;-83
2023/09/04 06:23:41;;;;;;;7.82;7.03;;;15.60;1.00;;;;;;5011572;28;20223;-83
2023/09/04 06:26:09;;;;;;;8.32;7.53;;;15.60;1.00;;;;;;5010958;28;20225;-83
2023/09/04 06:28:36;;;;;;;9.38;6.85;;;15.80;1.00;;;;;;5011150;28;20195;-83
2023/09/04 06:31:05;;;;;;;10.65;7.00;;;15.80;1.00;;;;;;5011564;28;20662;-82
2023/09/04 06:33:34;;;;;;;8.45;7.57;;;15.80;1.00;;;;;;5012921;28;20721;-84
2023/09/04 06:36:01;;;;;;;12.48;6.95;;;15.90;1.00;;;;;;5013533;28;20203;-83
2023/09/04 06:38:29;;;;;;;8.82;7.65;;;16.10;1.00;;;;;;5012880;28;20195;-83
2023/09/04 06:40:58;;;;;;;9.30;7.28;;;16.20;1.00;;;;;;5011144;28;20706;-83
2023/09/04 06:43:25;;;;;;;8.77;6.75;;;16.20;1.00;;;;;;5028890;28;20219;-84
2023/09/04 06:45:54;;;;;;;8.13;7.38;;;16.30;1.00;;;;;;5027064;28;20207;-82
2023/09/04 06:48:23;;;;;;;8.60;6.85;;;16.30;1.00;;;;;;5013904;28;20196;-83
2023/09/04 06:50:51;;;;;;;8.07;7.03;;;16.40;1.00;;;;;;5028492;28;20202;-83
2023/09/04 06:53:18;;;;;;;7.18;6.20;;;16.50;1.00;;;;;;5012831;28;20216;-83
2023/09/04 06:55:48;;;;;;;9.48;6.72;;;16.60;1.00;;;;;;5008601;28;20207;-84
2023/09/04 06:58:16;;;;;;;9.60;6.65;;;16.60;1.00;;;;;;5004592;28;20207;-83
2023/09/04 07:00:43;;;;;;;9.13;6.32;;;16.80;1.00;;;;;;5011127;28;20196;-83
2023/09/04 07:03:10;;;;;;;7.47;5.82;;;16.90;99.90;;;;;;5011850;28;20235;-83
2023/09/04 07:05:39;;;;;;;8.73;6.35;;;16.90;90.10;;;;;;5013565;28;20203;-83
2023/09/04 07:08:07;;;;;;;8.43;6.28;;;16.90;1.00;;;;;;5014988;28;20200;-83
2023/09/04 07:10:35;;;;;;;8.18;5.85;;;17.00;1.00;;;;;;5015173;28;20204;-84
2023/09/04 07:13:02;;;;;;;13.20;5.65;;;17.20;99.90;;;;;;5009832;28;20223;-83
2023/09/04 07:15:30;;;;;;;7.05;5.18;;;17.40;15.40;;;;;;5011965;28;20207;-84
2023/09/04 07:18:00;;;;;;;8.30;5.57;;;17.60;1.00;;;;;;5027545;28;20211;-83
2023/09/04 07:20:27;;;;;;;10.32;8.80;;;17.70;1.00;;;;;;5005545;28;20214;-83
2023/09/04 07:22:56;;;;;;;9.38;8.38;;;17.70;99.90;;;;;;5010911;28;20220;-83
2023/09/04 07:25:24;;;;;;;7.57;6.22;;;17.80;1.00;;;;;;5009349;28;20204;-84
2023/09/04 07:27:51;;;;;;;8.07;5.65;;;17.90;99.90;;;;;;5011153;28;20195;-83
2023/09/04 07:30:19;;;;;;;6.97;5.95;;;17.80;74.80;;;;;;5008535;28;20195;-84
2023/09/04 07:32:46;;;;;;;6.55;5.60;;;18.00;99.90;;;;;;5007899;28;20218;-84
2023/09/04 07:35:14;;;;;;;6.07;5.47;;;18.00;91.40;;;;;;5022116;28;20207;-83
2023/09/04 07:37:42;;;;;;;8.95;5.55;;;18.10;99.90;;;;;;5009339;28;20199;-83
2023/09/04 07:40:11;;;;;;;5.78;5.10;;;18.30;1.00;;;;;;5009082;28;20215;-83
2023/09/04 07:42:41;;;;;;;8.05;5.13;;;18.30;1.00;;;;;;5026139;28;20220;-83
2023/09/04 07:45:09;;;;;;;7.82;5.43;;;18.50;1.00;;;;;;5027182;28;20200;-83
2023/09/04 07:47:37;;;;;;;7.50;5.88;;;18.50;99.90;;;;;;5011718;28;20196;-83
2023/09/04 07:50:05;;;;;;;7.10;5.88;;;18.50;99.90;;;;;;5008209;28;20200;-83
2023/09/04 07:52:32;;;;;;;8.93;5.50;;;18.60;1.00;;;;;;5009376;28;20203;-83
2023/09/04 07:55:00;;;;;;;6.00;5.40;;;18.70;99.90;;;;;;5012067;28;20200;-83
2023/09/04 07:57:28;;;;;;;9.20;5.72;;;18.80;99.90;;;;;;5012542;28;20206;-83
2023/09/04 07:59:58;;;;;;;8.10;5.28;;;18.80;99.90;;;;;;5011665;28;20199;-83
2023/09/04 08:02:26;;;;;;;8.77;6.05;;;18.90;99.90;;;;;;5012592;28;20216;-84
2023/09/04 08:04:53;;;;;;;6.40;5.25;;;19.00;99.90;;;;;;5003288;28;20200;-84
2023/09/04 08:07:21;;;;;;;8.10;6.10;;;19.00;1.00;;;;;;5010496;28;20199;-83
2023/09/04 08:09:48;;;;;;;7.03;5.30;;;19.10;1.00;;;;;;5012587;28;20568;-84
2023/09/04 08:12:16;;;;;;;7.05;5.60;;;19.10;99.90;;;;;;5012753;28;20207;-84
2023/09/04 08:14:46;;;;;;;6.55;5.40;;;19.10;1.00;;;;;;5014184;28;20199;-83
2023/09/04 08:17:13;;;;;;;6.45;5.72;;;19.20;99.90;;;;;;5013175;28;20204;-83
2023/09/04 08:19:41;;;;;;;6.65;5.78;;;19.30;1.00;;;;;;5031684;28;20215;-83
2023/09/04 08:22:08;;;;;;;6.47;4.97;;;19.20;1.00;;;;;;5015556;28;20222;-83
2023/09/04 08:24:35;;;;;;;5.22;4.72;;;19.30;99.90;;;;;;5032172;28;20682;-83
2023/09/04 08:27:03;;;;;;;6.18;5.30;;;19.30;1.00;;;;;;5015391;28;20565;-83
2023/09/04 08:29:31;;;;;;;7.60;5.47;;;19.40;1.00;;;;;;5013968;28;20666;-83
2023/09/04 08:31:59;;;;;;;5.60;5.10;;;19.40;99.90;;;;;;5014446;28;20210;-84
2023/09/04 08:34:27;;;;;;;6.20;5.57;;;19.40;99.90;;;;;;5014689;28;20614;-83
2023/09/04 08:36:54;;;;;;;6.50;5.63;;;19.60;99.90;;;;;;5015164;28;20196;-84
2023/09/04 08:39:22;;;;;;;6.53;5.22;;;19.60;99.90;;;;;;5015130;28;20219;-83
2023/09/04 08:41:50;;;;;;;5.93;4.90;;;19.70;99.90;;;;;;5014822;28;20200;-83
2023/09/04 08:44:19;;;;;;;5.55;5.00;;;19.80;1.00;;;;;;5014535;28;20704;-83
2023/09/04 08:46:47;;;;;;;6.03;4.90;;;19.90;99.90;;;;;;5015366;28;20200;-83
2023/09/04 08:49:17;;;;;;;4.93;4.43;;;19.90;99.90;;;;;;5014628;28;20207;-83
2023/09/04 08:51:45;;;;;;;5.50;4.00;;;20.00;99.90;;;;;;5014269;28;20204;-83
2023/09/04 08:54:13;;;;;;;4.72;4.32;;;20.00;1.00;;;;;;5014549;28;20231;-84
2023/09/04 08:56:41;;;;;;;4.15;3.72;;;20.00;1.00;;;;;;5013834;28;20211;-83
2023/09/04 08:59:08;;;;;;;5.05;4.60;;;20.10;1.00;;;;;;5014043;28;20203;-83
2023/09/04 09:01:37;;;;;;;6.13;4.57;;;20.20;1.00;;;;;;4995062;28;20200;-83
2023/09/04 09:04:05;;;;;;;5.45;4.32;;;20.20;1.00;;;;;;5013704;28;20223;-83
2023/09/04 09:06:34;;;;;;;4.18;3.83;;;20.20;99.90;;;;;;5014452;28;20200;-83
2023/09/04 09:09:03;;;;;;;6.90;4.65;;;20.30;1.00;;;;;;5014197;28;20200;-83
2023/09/04 09:11:31;;;;;;;4.90;4.40;;;20.30;1.00;;;;;;5024058;28;20211;-83
2023/09/04 09:13:58;;;;;;;5.68;4.50;;;20.40;1.00;;;;;;5015313;28;20219;-83
2023/09/04 09:16:26;;;;;;;4.97;4.47;;;20.50;1.00;;;;;;5014333;28;20204;-83
2023/09/04 09:18:55;;;;;;;5.30;4.53;;;20.50;99.90;;;;;;5013523;28;20204;-83
2023/09/04 09:21:27;;;;;;;3.90;3.50;;;20.60;1.00;;;;;;5013629;28;20192;-83
2023/09/04 09:24:19;;;;;;;6.93;3.78;;;20.70;99.90;;;;;;5013520;28;20592;-83
2023/09/04 09:26:48;;;;;;;4.10;3.50;;;20.70;1.00;;;;;;5012102;28;20200;-83
2023/09/04 09:29:17;;;;;;;3.70;3.40;;;20.80;1.00;;;;;;5005509;28;20203;-83
2023/09/04 09:31:46;;;;;;;4.28;3.75;;;20.90;1.00;;;;;;5014257;28;20196;-83
2023/09/04 09:34:13;;;;;;;4.82;3.67;;;20.90;1.00;;;;;;5030216;28;20223;-83
2023/09/04 09:36:41;;;;;;;4.25;3.78;;;20.90;1.00;;;;;;5013874;28;20562;-83
2023/09/04 09:39:10;;;;;;;4.70;3.83;;;21.00;99.90;;;;;;5013700;28;20191;-83
2023/09/04 09:41:37;;;;;;;3.80;3.50;;;21.00;57.90;;;;;;5005068;28;20207;-83
2023/09/04 09:44:05;;;;;;;4.20;3.67;;;21.20;99.90;;;;;;5013418;28;20718;-83
2023/09/04 09:46:37;;;;;;;4.40;3.05;;;21.30;1.00;;;;;;5012708;28;20677;-83
2023/09/04 09:49:06;;;;;;;5.38;3.50;;;21.30;1.00;;;;;;5013192;28;20283;-83
2023/09/04 09:51:33;;;;;;;4.78;3.67;;;21.50;1.00;;;;;;5012823;28;20661;-83
2023/09/04 09:54:01;;;;;;;4.43;3.63;;;21.60;1.00;;;;;;5012078;28;20226;-83
2023/09/04 09:56:30;;;;;;;5.28;3.42;;;21.80;1.00;;;;;;5012874;28;20684;-84
2023/09/04 09:58:58;;;;;;;4.95;2.95;;;21.90;1.00;;;;;;5020637;28;20207;-83
2023/09/04 10:01:27;;;;;;;3.78;2.95;;;21.90;1.00;;;;;;5011711;28;20208;-83
2023/09/04 10:03:56;;;;;;;7.93;5.20;;;21.90;1.00;;;;;;5013555;28;20709;-83
2023/09/04 10:06:27;;;;;;;4.15;3.42;;;22.00;1.00;;;;;;5013418;28;20200;-83
2023/09/04 10:08:55;;;;;;;3.05;2.58;;;22.10;99.90;;;;;;5010861;28;20211;-83
2023/09/04 10:11:23;;;;;;;3.13;2.55;;;22.20;99.90;;;;;;5010032;28;20212;-83
2023/09/04 10:13:58;;;;;;;3.13;2.45;;;22.30;99.90;;;;;;5009235;28;20227;-83
2023/09/04 10:16:33;;;;;;;3.55;2.42;;;22.30;99.90;;;;;;5007588;28;20203;-84
2023/09/04 10:19:03;;;;;;;2.55;2.35;;;22.40;99.90;;;;;;5012700;28;20199;-83
2023/09/04 10:21:34;;;;;;;2.97;1.95;;;22.50;1.00;;;;;;5010773;28;20254;-83
2023/09/04 10:24:03;;;;;;;2.58;2.38;;;22.50;1.00;;;;;;5011498;28;20239;-84
2023/09/04 10:26:36;;;;;;;5.22;2.30;;;22.60;1.00;;;;;;5010709;28;20248;-83
2023/09/04 10:29:09;;;;;;;2.35;1.95;;;22.90;1.00;;;;;;5013023;28;20199;-83
2023/09/04 10:31:39;;;;;;;2.38;1.73;;;23.00;1.00;;;;;;5010437;28;20568;-83
2023/09/04 10:34:07;;;;;;;3.65;2.00;;;23.10;1.00;;;;;;5012557;28;20231;-83
2023/09/04 10:36:36;;;;;;;2.05;1.85;;;23.10;1.00;;;;;;5012509;28;20573;-83
2023/09/04 10:39:06;;;;;;;3.55;2.05;;;23.20;1.00;;;;;;5013444;28;20666;-83
2023/09/04 10:41:35;;;;;;;2.55;1.83;;;23.20;1.00;;;;;;5001680;28;20208;-83
2023/09/04 10:44:02;;;;;;;1.80;1.70;;;23.40;1.00;;;;;;5003441;28;20231;-83
2023/09/04 10:46:32;;;;;;;1.95;1.67;;;23.40;1.00;;;;;;5011709;28;20204;-83
2023/09/04 10:48:59;;;;;;;3.25;2.00;;;23.50;1.00;;;;;;5029466;28;20207;-83
2023/09/04 10:51:32;;;;;;;2.45;2.10;;;23.70;1.00;;;;;;5010872;28;20210;-83
2023/09/04 10:54:02;;;;;;;2.95;2.20;;;23.70;1.00;;;;;;5012557;28;20247;-84
2023/09/04 10:56:29;;;;;;;2.85;2.00;;;23.80;1.00;;;;;;5011531;28;20203;-83
2023/09/04 10:59:05;;;;;;;2.20;2.00;;;23.90;1.00;;;;;;5013036;28;20207;-83
2023/09/04 11:01:38;;;;;;;1.85;1.73;;;24.00;1.00;;;;;;5012151;28;20205;-83
2023/09/04 11:04:08;;;;;;;2.75;2.30;;;24.20;1.00;;;;;;5013583;28;20227;-83
2023/09/04 11:06:37;;;;;;;3.20;2.05;;;24.40;1.00;;;;;;5013347;28;20210;-83
2023/09/04 11:09:06;;;;;;;2.42;2.22;;;24.30;1.00;;;;;;5013475;28;20207;-83
2023/09/04 11:11:33;;;;;;;2.80;2.55;;;24.20;1.00;;;;;;5009240;28;20200;-84
2023/09/04 11:14:02;;;;;;;3.70;2.80;;;24.50;1.00;;;;;;5011946;28;20238;-84
2023/09/04 11:16:38;;;;;;;4.07;3.03;;;24.70;1.00;;;;;;5013808;28;20200;-84
2023/09/04 11:19:09;;;;;;;4.65;2.55;;;24.90;1.00;;;;;;5010443;28;20195;-83
2023/09/04 11:21:38;;;;;;;4.32;2.97;;;24.90;1.00;;;;;;5006885;28;20196;-84
2023/09/04 11:24:06;;;;;;;2.67;2.38;;;24.90;1.00;;;;;;5013794;28;20712;-84
2023/09/04 11:26:34;;;;;;;2.70;2.30;;;25.10;1.00;;;;;;5012694;28;20215;-83
2023/09/04 11:29:02;;;;;;;3.17;2.70;;;25.10;1.00;;;;;;5012628;28;20207;-84
2023/09/04 11:31:30;;;;;;;2.88;2.58;;;25.20;1.00;;;;;;5011648;28;20215;-84
2023/09/04 11:34:00;;;;;;;3.13;2.80;;;25.40;1.00;;;;;;5008601;28;20675;-84
2023/09/04 11:36:27;;;;;;;5.15;2.72;;;25.50;1.00;;;;;;5003857;28;20207;-84
2023/09/04 11:39:05;;;;;;;5.57;2.65;;;25.20;1.00;;;;;;5012329;28;20200;-84
2023/09/04 11:41:33;;;;;;;3.97;2.53;;;25.50;1.00;;;;;;5011865;28;20199;-83
2023/09/04 11:44:01;;;;;;;4.60;2.70;;;25.50;1.00;;;;;;5017261;28;20211;-83
2023/09/04 11:46:29;;;;;;;2.97;2.20;;;25.50;1.00;;;;;;5032222;28;20192;-83
2023/09/04 11:48:57;;;;;;;2.97;2.70;;;25.20;1.00;;;;;;5015685;28;20563;-83
2023/09/04 11:51:26;;;;;;;3.63;2.60;;;25.20;1.00;;;;;;5015441;28;20196;-83
2023/09/04 11:53:54;;;;;;;3.58;2.80;;;25.40;1.00;;;;;;5013753;28;20219;-84
2023/09/04 11:56:22;;;;;;;2.63;2.13;;;25.60;1.00;;;;;;5029028;28;20204;-83
2023/09/04 11:58:49;;;;;;;2.83;2.35;;;25.90;1.00;;;;;;5014937;28;20210;-83
2023/09/04 12:01:17;;;;;;;3.17;2.78;;;26.20;1.00;;;;;;5013607;28;20203;-83
2023/09/04 12:03:44;;;;;;;3.22;2.90;;;26.30;1.00;;;;;;5014185;28;20227;-83
2023/09/04 12:06:12;;;;;;;3.08;2.67;;;25.80;1.00;;;;;;5014741;28;20196;-84
2023/09/04 12:08:41;;;;;;;2.65;2.40;;;26.30;1.00;;;;;;5014100;28;20206;-83
2023/09/04 12:11:08;;;;;;;3.72;2.53;;;26.80;1.00;;;;;;5015366;28;20208;-83
2023/09/04 12:13:36;;;;;;;2.15;2.00;;;26.60;1.00;;;;;;5016503;28;20234;-84
2023/09/04 12:16:08;;;;;;;3.40;2.15;;;26.60;1.00;;;;;;5017478;28;20203;-83
2023/09/04 12:18:36;;;;;;;3.28;2.33;;;26.90;1.00;;;;;;5015955;28;20564;-83
2023/09/04 12:21:08;;;;;;;3.28;2.58;;;26.90;1.00;;;;;;5016109;28;20199;-83
2023/09/04 12:23:44;;;;;;;4.20;2.42;;;26.90;1.00;;;;;;5014759;28;20227;-83
2023/09/04 12:26:13;;;;;;;2.60;2.40;;;27.20;1.00;;;;;;5032684;28;20207;-83
2023/09/04 12:28:41;;;;;;;2.55;2.20;;;27.10;1.00;;;;;;5016197;28;20218;-83
2023/09/04 12:31:08;;;;;;;2.78;2.28;;;27.10;1.00;;;;;;5015755;28;20203;-83
2023/09/04 12:33:40;;;;;;;2.55;2.30;;;26.90;1.00;;;;;;5032717;28;20223;-83
2023/09/04 12:36:09;;;;;;;2.67;2.47;;;27.40;1.00;;;;;;5015701;28;20204;-83
2023/09/04 12:38:37;;;;;;;4.97;2.53;;;27.50;1.00;;;;;;5007127;28;20199;-83
2023/09/04 12:41:07;;;;;;;2.67;2.47;;;27.20;1.00;;;;;;5015048;28;20207;-83
2023/09/04 12:43:34;;;;;;;2.83;2.50;;;27.10;1.00;;;;;;5015559;28;20219;-83
2023/09/04 12:46:02;;;;;;;3.33;2.28;;;27.40;1.00;;;;;;5015622;28;20246;-83
2023/09/04 12:48:30;;;;;;;5.35;4.40;;;27.80;1.00;;;;;;5015680;28;20191;-84
2023/09/04 12:50:57;;;;;;;4.53;2.50;;;27.90;1.00;;;;;;5013844;28;20693;-85
2023/09/04 12:53:24;;;;;;;5.05;3.03;;;27.80;1.00;;;;;;5013517;28;20231;-83
2023/09/04 12:55:52;;;;;;;4.63;2.60;;;27.90;1.00;;;;;;5015038;28;20203;-84
2023/09/04 12:58:21;;;;;;;3.60;2.67;;;28.40;1.00;;;;;;5031762;28;20204;-84
2023/09/04 13:00:48;;;;;;;3.60;2.80;;;29.00;1.00;;;;;;5014901;28;20218;-83